Terminal Aerodrome Forecast
Issued by NWS Buffalo, NY

Home | Current Version | Previous Version | Text Only | Print | Product List | Glossary On
Versions: 1 2 3 4 5 6 7 8 9 10 11 12 13 14 15 16 17 18 19 20 21 22
000
FTUS41 KBUF 292300
TAFART
TAF
KART 292340Z 3000/3024 18012G22KT 1SM -SN BR OVC002
     FM300300 18014KT 2SM -SN BR SCT007 OVC015
     FM300600 20012KT 2SM -SN BR SCT003 OVC007
     FM301100 31013G19KT 4SM -SHSN BR SCT007 OVC015
     FM301800 33012G18KT P6SM VCSH OVC015
     FM302200 32012G18KT P6SM BKN025=

USA.gov is the U.S. government's official web portal to all federal, state and local government web resources and services.